sensor_id;sensor_type;location;lat;lon;timestamp;pressure;altitude;pressure_sealevel;temperature;humidity
61757;BME280;57225;61.460;24.060;2023-01-15T00:00:25;98446.38;;;2.17;100.00
61757;BME280;57225;61.460;24.060;2023-01-15T00:03:09;98448.31;;;2.13;100.00
61757;BME280;57225;61.460;24.060;2023-01-15T00:05:55;98438.47;;;2.05;100.00
61757;BME280;57225;61.460;24.060;2023-01-15T00:08:40;98448.28;;;2.02;100.00
61757;BME280;57225;61.460;24.060;2023-01-15T00:11:24;98443.94;;;1.97;100.00
61757;BME280;57225;61.460;24.060;2023-01-15T00:14:09;98450.59;;;1.93;100.00
61757;BME280;57225;61.460;24.060;2023-01-15T00:16:53;98445.91;;;1.93;100.00
61757;BME280;57225;61.460;24.060;2023-01-15T00:19:38;98443.59;;;2.06;100.00
61757;BME280;57225;61.460;24.060;2023-01-15T00:22:23;98446.72;;;2.01;100.00
61757;BME280;57225;61.460;24.060;2023-01-15T00:25:09;98443.19;;;2.00;100.00
61757;BME280;57225;61.460;24.060;2023-01-15T00:28:12;98440.41;;;1.93;100.00
61757;BME280;57225;61.460;24.060;2023-01-15T00:30:57;98445.09;;;1.96;100.00
61757;BME280;57225;61.460;24.060;2023-01-15T00:33:42;98448.28;;;2.02;100.00
61757;BME280;57225;61.460;24.060;2023-01-15T00:36:26;98451.84;;;2.06;100.00
61757;BME280;57225;61.460;24.060;2023-01-15T00:39:10;98441.19;;;1.97;100.00
61757;BME280;57225;61.460;24.060;2023-01-15T00:41:55;98442.75;;;1.88;100.00
61757;BME280;57225;61.460;24.060;2023-01-15T00:44:39;98435.66;;;1.87;100.00
61757;BME280;57225;61.460;24.060;2023-01-15T00:47:23;98439.22;;;1.94;100.00
61757;BME280;57225;61.460;24.060;2023-01-15T00:50:10;98433.31;;;1.85;100.00
61757;BME280;57225;61.460;24.060;2023-01-15T00:52:55;98441.22;;;2.01;100.00
61757;BME280;57225;61.460;24.060;2023-01-15T00:55:39;98441.97;;;1.94;100.00
61757;BME280;57225;61.460;24.060;2023-01-15T00:58:24;98450.56;;;1.82;100.00
61757;BME280;57225;61.460;24.060;2023-01-15T01:01:08;98451.38;;;1.97;100.00
61757;BME280;57225;61.460;24.060;2023-01-15T01:03:53;98446.31;;;1.95;100.00
61757;BME280;57225;61.460;24.060;2023-01-15T01:06:37;98449.06;;;2.02;100.00
61757;BME280;57225;61.460;24.060;2023-01-15T01:09:22;98437.69;;;2.00;100.00
61757;BME280;57225;61.460;24.060;2023-01-15T01:12:06;98447.53;;;2.09;100.00
61757;BME280;57225;61.460;24.060;2023-01-15T01:14:51;98445.53;;;2.02;100.00
61757;BME280;57225;61.460;24.060;2023-01-15T01:17:36;98445.53;;;2.06;100.00
61757;BME280;57225;61.460;24.060;2023-01-15T01:20:21;98446.72;;;2.05;100.00
61757;BME280;57225;61.460;24.060;2023-01-15T01:23:05;98453.75;;;1.98;100.00
61757;BME280;57225;61.460;24.060;2023-01-15T01:25:50;98441.59;;;2.03;100.00
61757;BME280;57225;61.460;24.060;2023-01-15T01:28:35;98444.38;;;2.07;100.00
61757;BME280;57225;61.460;24.060;2023-01-15T01:31:20;98440.06;;;2.06;100.00
61757;BME280;57225;61.460;24.060;2023-01-15T01:34:04;98444.34;;;1.99;100.00
61757;BME280;57225;61.460;24.060;2023-01-15T01:36:48;98456.88;;;1.93;100.00
61757;BME280;57225;61.460;24.060;2023-01-15T01:39:33;98447.50;;;2.05;100.00
61757;BME280;57225;61.460;24.060;2023-01-15T01:42:17;98439.66;;;2.11;100.00
61757;BME280;57225;61.460;24.060;2023-01-15T01:45:34;98436.88;;;1.89;100.00
61757;BME280;57225;61.460;24.060;2023-01-15T01:48:23;98431.00;;;1.98;100.00
61757;BME280;57225;61.460;24.060;2023-01-15T01:51:09;98437.25;;;1.91;100.00
61757;BME280;57225;61.460;24.060;2023-01-15T01:53:55;98419.53;;;1.75;100.00
61757;BME280;57225;61.460;24.060;2023-01-15T01:56:40;98430.19;;;1.90;100.00
61757;BME280;57225;61.460;24.060;2023-01-15T01:59:25;98419.19;;;1.83;100.00
61757;BME280;57225;61.460;24.060;2023-01-15T02:02:10;98414.88;;;1.89;100.00
61757;BME280;57225;61.460;24.060;2023-01-15T02:04:54;98406.66;;;1.89;100.00
61757;BME280;57225;61.460;24.060;2023-01-15T02:07:39;98404.66;;;1.90;100.00
61757;BME280;57225;61.460;24.060;2023-01-15T02:10:24;98404.28;;;1.91;100.00
61757;BME280;57225;61.460;24.060;2023-01-15T02:16:42;98406.25;;;1.87;100.00
61757;BME280;57225;61.460;24.060;2023-01-15T02:20:29;98393.66;;;1.76;100.00
61757;BME280;57225;61.460;24.060;2023-01-15T02:29:09;98376.75;;;1.74;100.00
61757;BME280;57225;61.460;24.060;2023-01-15T02:31:59;98376.69;;;1.59;100.00
61757;BME280;57225;61.460;24.060;2023-01-15T02:34:51;98380.63;;;1.58;100.00
61757;BME280;57225;61.460;24.060;2023-01-15T02:37:40;98386.97;;;1.70;100.00
61757;BME280;57225;61.460;24.060;2023-01-15T02:40:26;98390.06;;;1.65;100.00
61757;BME280;57225;61.460;24.060;2023-01-15T02:43:12;98389.25;;;1.57;100.00
61757;BME280;57225;61.460;24.060;2023-01-15T02:45:59;98383.34;;;1.55;100.00
61757;BME280;57225;61.460;24.060;2023-01-15T02:48:49;98385.69;;;1.49;100.00
61757;BME280;57225;61.460;24.060;2023-01-15T02:51:43;98390.75;;;1.47;100.00
61757;BME280;57225;61.460;24.060;2023-01-15T02:54:35;98385.69;;;1.53;100.00
61757;BME280;57225;61.460;24.060;2023-01-15T02:57:25;98336.13;;;1.21;100.00
61757;BME280;57225;61.460;24.060;2023-01-15T03:00:14;98366.50;;;1.60;100.00
61757;BME280;57225;61.460;24.060;2023-01-15T03:06:54;98373.97;;;1.59;100.00
61757;BME280;57225;61.460;24.060;2023-01-15T03:09:43;98369.59;;;1.48;100.00
61757;BME280;57225;61.460;24.060;2023-01-15T03:12:43;98355.47;;;1.46;100.00
61757;BME280;57225;61.460;24.060;2023-01-15T03:19:47;98349.63;;;1.54;100.00
61757;BME280;57225;61.460;24.060;2023-01-15T03:22:38;98355.88;;;1.48;100.00
61757;BME280;57225;61.460;24.060;2023-01-15T03:25:32;98348.78;;;1.40;100.00
61757;BME280;57225;61.460;24.060;2023-01-15T03:28:23;98350.78;;;1.50;100.00
61757;BME280;57225;61.460;24.060;2023-01-15T03:31:08;98342.56;;;1.50;100.00
61757;BME280;57225;61.460;24.060;2023-01-15T03:33:53;98336.72;;;1.62;100.00
61757;BME280;57225;61.460;24.060;2023-01-15T03:36:37;98326.09;;;1.50;100.00
61757;BME280;57225;61.460;24.060;2023-01-15T03:39:22;98322.19;;;1.51;100.00
61757;BME280;57225;61.460;24.060;2023-01-15T03:45:22;98322.19;;;1.51;100.00
61757;BME280;57225;61.460;24.060;2023-01-15T03:48:24;98318.66;;;1.61;100.00
61757;BME280;57225;61.460;24.060;2023-01-15T03:51:17;98320.25;;;1.66;100.00
61757;BME280;57225;61.460;24.060;2023-01-15T03:54:06;98323.38;;;1.57;100.00
61757;BME280;57225;61.460;24.060;2023-01-15T03:56:59;98307.66;;;1.54;100.00
61757;BME280;57225;61.460;24.060;2023-01-15T04:00:13;98306.50;;;1.55;100.00
61757;BME280;57225;61.460;24.060;2023-01-15T04:02:58;98294.72;;;1.51;100.00
61757;BME280;57225;61.460;24.060;2023-01-15T04:05:46;98286.50;;;1.51;100.00
61757;BME280;57225;61.460;24.060;2023-01-15T04:08:35;98281.78;;;1.51;100.00
61757;BME280;57225;61.460;24.060;2023-01-15T04:11:21;98273.16;;;1.49;100.00
61757;BME280;57225;61.460;24.060;2023-01-15T04:14:06;98265.72;;;1.50;100.00
61757;BME280;57225;61.460;24.060;2023-01-15T04:16:50;98253.56;;;1.51;100.00
61757;BME280;57225;61.460;24.060;2023-01-15T04:19:36;98246.50;;;1.50;100.00
61757;BME280;57225;61.460;24.060;2023-01-15T04:22:21;98241.78;;;1.54;100.00
61757;BME280;57225;61.460;24.060;2023-01-15T04:25:06;98239.44;;;1.56;100.00
61757;BME280;57225;61.460;24.060;2023-01-15T04:27:53;98229.63;;;1.55;100.00
61757;BME280;57225;61.460;24.060;2023-01-15T04:30:38;98226.53;;;1.67;100.00
61757;BME280;57225;61.460;24.060;2023-01-15T04:33:22;98222.19;;;1.59;100.00
61757;BME280;57225;61.460;24.060;2023-01-15T04:36:07;98218.66;;;1.62;100.00
61757;BME280;57225;61.460;24.060;2023-01-15T04:38:54;98221.44;;;1.69;100.00
61757;BME280;57225;61.460;24.060;2023-01-15T04:41:40;98212.00;;;1.63;100.00
61757;BME280;57225;61.460;24.060;2023-01-15T04:44:43;98198.66;;;1.61;100.00
61757;BME280;57225;61.460;24.060;2023-01-15T04:47:29;98201.03;;;1.63;100.00
61757;BME280;57225;61.460;24.060;2023-01-15T04:50:13;98199.47;;;1.62;100.00
61757;BME280;57225;61.460;24.060;2023-01-15T04:52:58;98194.38;;;1.64;100.00
61757;BME280;57225;61.460;24.060;2023-01-15T04:55:42;98179.44;;;1.61;100.00
61757;BME280;57225;61.460;24.060;2023-01-15T04:58:27;98184.56;;;1.74;100.00
61757;BME280;57225;61.460;24.060;2023-01-15T05:01:12;98176.72;;;1.86;100.00
61757;BME280;57225;61.460;24.060;2023-01-15T05:03:57;98170.44;;;1.75;100.00
61757;BME280;57225;61.460;24.060;2023-01-15T05:06:42;98156.31;;;1.73;100.00
61757;BME280;57225;61.460;24.060;2023-01-15T05:09:26;98157.13;;;1.70;100.00
61757;BME280;57225;61.460;24.060;2023-01-15T05:12:11;98143.34;;;1.77;100.00
61757;BME280;57225;61.460;24.060;2023-01-15T05:14:55;98146.91;;;1.74;100.00
61757;BME280;57225;61.460;24.060;2023-01-15T05:17:40;98132.00;;;1.75;100.00
61757;BME280;57225;61.460;24.060;2023-01-15T05:20:24;98132.41;;;1.70;100.00
61757;BME280;57225;61.460;24.060;2023-01-15T05:23:09;98124.16;;;1.74;100.00
61757;BME280;57225;61.460;24.060;2023-01-15T05:25:53;98111.97;;;1.78;100.00
61757;BME280;57225;61.460;24.060;2023-01-15T05:28:38;98096.69;;;1.77;100.00
61757;BME280;57225;61.460;24.060;2023-01-15T05:31:24;98086.88;;;1.80;100.00
61757;BME280;57225;61.460;24.060;2023-01-15T05:34:08;98088.06;;;1.75;100.00
61757;BME280;57225;61.460;24.060;2023-01-15T05:36:53;98077.84;;;1.72;100.00
61757;BME280;57225;61.460;24.060;2023-01-15T05:39:37;98057.88;;;1.68;100.00
61757;BME280;57225;61.460;24.060;2023-01-15T05:42:22;98068.84;;;1.75;100.00
61757;BME280;57225;61.460;24.060;2023-01-15T05:45:07;98052.38;;;1.75;100.00
61757;BME280;57225;61.460;24.060;2023-01-15T05:47:54;98055.13;;;1.75;100.00
61757;BME280;57225;61.460;24.060;2023-01-15T05:50:39;98034.72;;;1.76;100.00
61757;BME280;57225;61.460;24.060;2023-01-15T05:53:23;98025.28;;;1.77;100.00
61757;BME280;57225;61.460;24.060;2023-01-15T05:56:08;98013.53;;;1.77;100.00
61757;BME280;57225;61.460;24.060;2023-01-15T05:58:52;98010.38;;;1.78;100.00
61757;BME280;57225;61.460;24.060;2023-01-15T06:01:37;98004.53;;;1.76;100.00
61757;BME280;57225;61.460;24.060;2023-01-15T06:04:22;97999.41;;;1.71;100.00
61757;BME280;57225;61.460;24.060;2023-01-15T06:07:07;97981.00;;;1.65;100.00
61757;BME280;57225;61.460;24.060;2023-01-15T06:09:52;97960.22;;;1.60;100.00
61757;BME280;57225;61.460;24.060;2023-01-15T06:12:36;97975.13;;;1.66;100.00
61757;BME280;57225;61.460;24.060;2023-01-15T06:15:21;97962.19;;;1.70;100.00
61757;BME280;57225;61.460;24.060;2023-01-15T06:18:06;97946.13;;;1.61;100.00
61757;BME280;57225;61.460;24.060;2023-01-15T06:20:51;97946.47;;;1.74;100.00
61757;BME280;57225;61.460;24.060;2023-01-15T06:23:36;97941.38;;;1.76;100.00
61757;BME280;57225;61.460;24.060;2023-01-15T06:26:20;97935.81;;;1.94;100.00
61757;BME280;57225;61.460;24.060;2023-01-15T06:29:05;97923.66;;;1.88;100.00
61757;BME280;57225;61.460;24.060;2023-01-15T06:31:49;97918.53;;;1.90;100.00
61757;BME280;57225;61.460;24.060;2023-01-15T06:34:34;97898.91;;;1.98;100.00
61757;BME280;57225;61.460;24.060;2023-01-15T06:55:49;97839.09;;;1.58;100.00
61757;BME280;57225;61.460;24.060;2023-01-15T06:58:34;97845.28;;;1.73;100.00
61757;BME280;57225;61.460;24.060;2023-01-15T07:01:19;97846.03;;;1.80;100.00
61757;BME280;57225;61.460;24.060;2023-01-15T07:04:03;97825.19;;;1.86;100.00
61757;BME280;57225;61.460;24.060;2023-01-15T07:06:48;97813.00;;;1.94;100.00
61757;BME280;57225;61.460;24.060;2023-01-15T07:09:32;97820.81;;;1.99;100.00
61757;BME280;57225;61.460;24.060;2023-01-15T07:12:16;97822.03;;;1.95;100.00
61757;BME280;57225;61.460;24.060;2023-01-15T07:15:01;97816.13;;;1.93;100.00
61757;BME280;57225;61.460;24.060;2023-01-15T07:17:45;97819.63;;;2.00;100.00
61757;BME280;57225;61.460;24.060;2023-01-15T07:20:30;97816.88;;;1.97;100.00
61757;BME280;57225;61.460;24.060;2023-01-15T07:23:14;97800.09;;;1.84;100.00
61757;BME280;57225;61.460;24.060;2023-01-15T07:26:00;97806.00;;;1.83;100.00
61757;BME280;57225;61.460;24.060;2023-01-15T07:28:45;97787.56;;;1.83;100.00
61757;BME280;57225;61.460;24.060;2023-01-15T07:31:29;97783.59;;;1.91;100.00
61757;BME280;57225;61.460;24.060;2023-01-15T07:34:14;97785.53;;;1.91;100.00
61757;BME280;57225;61.460;24.060;2023-01-15T07:36:58;97776.53;;;1.90;100.00
61757;BME280;57225;61.460;24.060;2023-01-15T07:39:42;97768.66;;;1.92;100.00
61757;BME280;57225;61.460;24.060;2023-01-15T07:42:27;97764.41;;;1.84;100.00
61757;BME280;57225;61.460;24.060;2023-01-15T07:45:30;97753.47;;;1.81;100.00
61757;BME280;57225;61.460;24.060;2023-01-15T07:48:33;97722.47;;;1.80;100.00
61757;BME280;57225;61.460;24.060;2023-01-15T07:51:36;97726.38;;;1.83;100.00
61757;BME280;57225;61.460;24.060;2023-01-15T07:54:20;97713.09;;;1.74;100.00
61757;BME280;57225;61.460;24.060;2023-01-15T07:57:05;97704.44;;;1.79;100.00
61757;BME280;57225;61.460;24.060;2023-01-15T07:59:50;97709.09;;;1.86;100.00
61757;BME280;57225;61.460;24.060;2023-01-15T08:02:34;97694.19;;;1.87;100.00
61757;BME280;57225;61.460;24.060;2023-01-15T08:05:19;97691.03;;;1.85;100.00
61757;BME280;57225;61.460;24.060;2023-01-15T08:08:03;97676.97;;;1.79;100.00
61757;BME280;57225;61.460;24.060;2023-01-15T08:10:48;97677.81;;;1.76;100.00
61757;BME280;57225;61.460;24.060;2023-01-15T08:13:50;97679.34;;;1.77;100.00
61757;BME280;57225;61.460;24.060;2023-01-15T08:16:53;97666.38;;;1.81;100.00
61757;BME280;57225;61.460;24.060;2023-01-15T08:19:38;97658.13;;;1.81;100.00
61757;BME280;57225;61.460;24.060;2023-01-15T08:22:22;97646.81;;;1.72;100.00
61757;BME280;57225;61.460;24.060;2023-01-15T08:25:08;97637.81;;;1.75;100.00
61757;BME280;57225;61.460;24.060;2023-01-15T08:27:53;97630.75;;;1.74;100.00
61757;BME280;57225;61.460;24.060;2023-01-15T08:30:38;97620.59;;;1.68;100.00
61757;BME280;57225;61.460;24.060;2023-01-15T08:33:22;97618.31;;;1.59;100.00
61757;BME280;57225;61.460;24.060;2023-01-15T08:36:07;97590.50;;;1.57;100.00
61757;BME280;57225;61.460;24.060;2023-01-15T08:38:51;97590.91;;;1.52;100.00
61757;BME280;57225;61.460;24.060;2023-01-15T08:41:36;97560.72;;;1.52;100.00
61757;BME280;57225;61.460;24.060;2023-01-15T08:44:21;97563.84;;;1.54;100.00
61757;BME280;57225;61.460;24.060;2023-01-15T08:47:07;97559.53;;;1.56;100.00
61757;BME280;57225;61.460;24.060;2023-01-15T08:49:51;97552.50;;;1.52;100.00
61757;BME280;57225;61.460;24.060;2023-01-15T08:52:36;97537.31;;;1.44;100.00
61757;BME280;57225;61.460;24.060;2023-01-15T08:55:23;97561.16;;;1.50;100.00
61757;BME280;57225;61.460;24.060;2023-01-15T08:58:08;97536.53;;;1.40;100.00
61757;BME280;57225;61.460;24.060;2023-01-15T09:00:52;97521.19;;;1.46;100.00
61757;BME280;57225;61.460;24.060;2023-01-15T09:03:37;97512.66;;;1.37;100.00
61757;BME280;57225;61.460;24.060;2023-01-15T09:06:21;97515.41;;;1.37;100.00
61757;BME280;57225;61.460;24.060;2023-01-15T09:09:06;97506.34;;;1.40;100.00
61757;BME280;57225;61.460;24.060;2023-01-15T09:11:50;97484.91;;;1.28;100.00
61757;BME280;57225;61.460;24.060;2023-01-15T09:14:35;97489.66;;;1.24;100.00
61757;BME280;57225;61.460;24.060;2023-01-15T09:17:19;97471.91;;;1.35;100.00
61757;BME280;57225;61.460;24.060;2023-01-15T09:20:04;97459.44;;;1.31;100.00
61757;BME280;57225;61.460;24.060;2023-01-15T09:22:49;97463.34;;;1.30;100.00
61757;BME280;57225;61.460;24.060;2023-01-15T09:25:33;97462.94;;;1.31;100.00
61757;BME280;57225;61.460;24.060;2023-01-15T09:28:18;97455.84;;;1.34;100.00
61757;BME280;57225;61.460;24.060;2023-01-15T09:31:02;97423.38;;;1.29;100.00
61757;BME280;57225;61.460;24.060;2023-01-15T09:33:47;97432.47;;;1.22;100.00
61757;BME280;57225;61.460;24.060;2023-01-15T09:36:33;97424.28;;;1.15;100.00
61757;BME280;57225;61.460;24.060;2023-01-15T09:39:18;97401.50;;;1.21;100.00
61757;BME280;57225;61.460;24.060;2023-01-15T09:45:30;97385.63;;;1.06;100.00
61757;BME280;57225;61.460;24.060;2023-01-15T09:48:30;97396.53;;;1.09;100.00
61757;BME280;57225;61.460;24.060;2023-01-15T09:51:31;97375.75;;;1.12;100.00
61757;BME280;57225;61.460;24.060;2023-01-15T09:54:23;97369.94;;;1.06;100.00
61757;BME280;57225;61.460;24.060;2023-01-15T09:57:14;97360.97;;;1.02;100.00
61757;BME280;57225;61.460;24.060;2023-01-15T09:59:59;97350.75;;;1.06;100.00
61757;BME280;57225;61.460;24.060;2023-01-15T10:08:50;97296.84;;;0.93;100.00
61757;BME280;57225;61.460;24.060;2023-01-15T10:11:42;97310.16;;;0.94;100.00
61757;BME280;57225;61.460;24.060;2023-01-15T10:17:45;97285.16;;;0.85;100.00
61757;BME280;57225;61.460;24.060;2023-01-15T10:21:03;97268.19;;;0.97;100.00
61757;BME280;57225;61.460;24.060;2023-01-15T10:23:56;97263.16;;;0.92;100.00
61757;BME280;57225;61.460;24.060;2023-01-15T10:26:55;97271.31;;;0.99;100.00
61757;BME280;57225;61.460;24.060;2023-01-15T10:30:00;97265.44;;;0.97;100.00
61757;BME280;57225;61.460;24.060;2023-01-15T10:32:55;97242.03;;;0.89;100.00
61757;BME280;57225;61.460;24.060;2023-01-15T10:36:35;97254.41;;;1.04;100.00
61757;BME280;57225;61.460;24.060;2023-01-15T10:39:29;97239.97;;;1.00;100.00
61757;BME280;57225;61.460;24.060;2023-01-15T10:42:28;97245.06;;;0.98;100.00
61757;BME280;57225;61.460;24.060;2023-01-15T10:45:19;97221.66;;;0.90;100.00
61757;BME280;57225;61.460;24.060;2023-01-15T10:48:13;97223.59;;;0.93;100.00
61757;BME280;57225;61.460;24.060;2023-01-15T10:51:05;97216.97;;;0.91;100.00
61757;BME280;57225;61.460;24.060;2023-01-15T10:57:15;97215.47;;;0.86;100.00
61757;BME280;57225;61.460;24.060;2023-01-15T11:00:02;97186.25;;;0.72;100.00
61757;BME280;57225;61.460;24.060;2023-01-15T11:03:00;97198.22;;;0.86;100.00
61757;BME280;57225;61.460;24.060;2023-01-15T11:05:54;97183.81;;;0.82;100.00
61757;BME280;57225;61.460;24.060;2023-01-15T11:08:42;97175.16;;;0.83;100.00
61757;BME280;57225;61.460;24.060;2023-01-15T11:11:35;97189.59;;;0.87;100.00
61757;BME280;57225;61.460;24.060;2023-01-15T11:14:45;97153.13;;;0.90;100.00
61757;BME280;57225;61.460;24.060;2023-01-15T11:17:49;97149.06;;;0.71;100.00
61757;BME280;57225;61.460;24.060;2023-01-15T11:20:52;97162.97;;;0.88;100.00
61757;BME280;57225;61.460;24.060;2023-01-15T11:23:36;97146.66;;;0.77;100.00
61757;BME280;57225;61.460;24.060;2023-01-15T11:26:26;97145.59;;;0.67;100.00
61757;BME280;57225;61.460;24.060;2023-01-15T11:29:13;97107.47;;;0.50;100.00
61757;BME280;57225;61.460;24.060;2023-01-15T11:31:58;97125.41;;;0.54;100.00
61757;BME280;57225;61.460;24.060;2023-01-15T11:35:02;97142.09;;;0.67;100.00
61757;BME280;57225;61.460;24.060;2023-01-15T11:37:46;97127.19;;;0.68;100.00
61757;BME280;57225;61.460;24.060;2023-01-15T11:40:31;97145.84;;;0.80;100.00
61757;BME280;57225;61.460;24.060;2023-01-15T11:43:20;97175.47;;;0.89;100.00
61757;BME280;57225;61.460;24.060;2023-01-15T11:46:29;97186.31;;;0.99;100.00
61757;BME280;57225;61.460;24.060;2023-01-15T11:49:33;97166.72;;;1.01;100.00
61757;BME280;57225;61.460;24.060;2023-01-15T11:52:44;97153.91;;;0.91;100.00
61757;BME280;57225;61.460;24.060;2023-01-15T11:55:30;97140.19;;;0.94;100.00
61757;BME280;57225;61.460;24.060;2023-01-15T11:58:14;97160.41;;;1.04;100.00
61757;BME280;57225;61.460;24.060;2023-01-15T12:00:59;97132.31;;;0.96;100.00
61757;BME280;57225;61.460;24.060;2023-01-15T12:03:44;97108.84;;;0.65;100.00
61757;BME280;57225;61.460;24.060;2023-01-15T12:06:30;97165.06;;;1.07;100.00
61757;BME280;57225;61.460;24.060;2023-01-15T12:09:33;97168.94;;;1.09;100.00
61757;BME280;57225;61.460;24.060;2023-01-15T12:12:31;97171.34;;;1.07;100.00
61757;BME280;57225;61.460;24.060;2023-01-15T12:33:47;97176.47;;;1.32;100.00
61757;BME280;57225;61.460;24.060;2023-01-15T12:42:35;97177.88;;;1.44;100.00
61757;BME280;57225;61.460;24.060;2023-01-15T12:45:47;97169.09;;;1.52;100.00
61757;BME280;57225;61.460;24.060;2023-01-15T12:51:39;97186.72;;;1.55;100.00
61757;BME280;57225;61.460;24.060;2023-01-15T12:54:35;97194.13;;;1.58;100.00
61757;BME280;57225;61.460;24.060;2023-01-15T12:57:43;97191.13;;;1.49;100.00
61757;BME280;57225;61.460;24.060;2023-01-15T13:00:38;97201.25;;;1.52;100.00
61757;BME280;57225;61.460;24.060;2023-01-15T13:03:33;97195.56;;;1.66;100.00
61757;BME280;57225;61.460;24.060;2023-01-15T13:06:23;97184.34;;;1.57;100.00
61757;BME280;57225;61.460;24.060;2023-01-15T13:09:33;97197.22;;;1.60;100.00
61757;BME280;57225;61.460;24.060;2023-01-15T13:12:18;97188.88;;;1.67;100.00
61757;BME280;57225;61.460;24.060;2023-01-15T13:15:04;97187.69;;;1.68;100.00
61757;BME280;57225;61.460;24.060;2023-01-15T13:21:13;97200.63;;;1.68;100.00
61757;BME280;57225;61.460;24.060;2023-01-15T13:24:38;97188.28;;;1.56;100.00
61757;BME280;57225;61.460;24.060;2023-01-15T13:33:38;97194.22;;;1.51;100.00
61757;BME280;57225;61.460;24.060;2023-01-15T13:36:32;97216.69;;;1.69;100.00
61757;BME280;57225;61.460;24.060;2023-01-15T13:39:22;97208.19;;;1.60;100.00
61757;BME280;57225;61.460;24.060;2023-01-15T13:42:37;97210.03;;;1.70;100.00
61757;BME280;57225;61.460;24.060;2023-01-15T13:51:36;97210.59;;;1.58;100.00
61757;BME280;57225;61.460;24.060;2023-01-15T13:54:26;97208.94;;;1.64;100.00
61757;BME280;57225;61.460;24.060;2023-01-15T13:57:31;97210.59;;;1.58;100.00
61757;BME280;57225;61.460;24.060;2023-01-15T14:00:34;97206.28;;;1.57;100.00
61757;BME280;57225;61.460;24.060;2023-01-15T14:03:31;97201.25;;;1.52;100.00
61757;BME280;57225;61.460;24.060;2023-01-15T14:06:15;97204.44;;;1.50;100.00
61757;BME280;57225;61.460;24.060;2023-01-15T14:08:59;97207.59;;;1.49;100.00
61757;BME280;57225;61.460;24.060;2023-01-15T14:17:59;97216.13;;;1.54;100.00
61757;BME280;57225;61.460;24.060;2023-01-15T14:24:36;97218.09;;;1.54;100.00
61757;BME280;57225;61.460;24.060;2023-01-15T14:27:52;97212.50;;;1.61;100.00
61757;BME280;57225;61.460;24.060;2023-01-15T14:31:01;97224.25;;;1.61;100.00
61757;BME280;57225;61.460;24.060;2023-01-15T14:37:00;97219.28;;;1.53;100.00
61757;BME280;57225;61.460;24.060;2023-01-15T14:39:48;97225.50;;;1.57;100.00
61757;BME280;57225;61.460;24.060;2023-01-15T14:42:37;97222.38;;;1.55;100.00
61757;BME280;57225;61.460;24.060;2023-01-15T14:45:44;97218.34;;;1.63;100.00
61757;BME280;57225;61.460;24.060;2023-01-15T14:51:29;97223.78;;;1.67;100.00
61757;BME280;57225;61.460;24.060;2023-01-15T14:54:18;97218.88;;;1.54;100.00
61757;BME280;57225;61.460;24.060;2023-01-15T14:57:06;97219.34;;;1.49;100.00
61757;BME280;57225;61.460;24.060;2023-01-15T14:59:56;97221.22;;;1.52;100.00
61757;BME280;57225;61.460;24.060;2023-01-15T15:02:42;97221.19;;;1.56;100.00
61757;BME280;57225;61.460;24.060;2023-01-15T15:05:28;97221.56;;;1.58;100.00
61757;BME280;57225;61.460;24.060;2023-01-15T15:08:16;97222.31;;;1.58;100.00
61757;BME280;57225;61.460;24.060;2023-01-15T15:11:03;97228.16;;;1.64;100.00
61757;BME280;57225;61.460;24.060;2023-01-15T15:14:11;97232.41;;;1.65;100.00
61757;BME280;57225;61.460;24.060;2023-01-15T15:17:00;97228.34;;;1.77;100.00
61757;BME280;57225;61.460;24.060;2023-01-15T15:19:50;97230.66;;;1.78;100.00
61757;BME280;57225;61.460;24.060;2023-01-15T15:22:40;97221.72;;;1.74;100.00
61757;BME280;57225;61.460;24.060;2023-01-15T15:25:28;97220.13;;;1.77;100.00
61757;BME280;57225;61.460;24.060;2023-01-15T15:28:16;97201.50;;;1.88;100.00
61757;BME280;57225;61.460;24.060;2023-01-15T15:31:00;97222.56;;;1.94;100.00
61757;BME280;57225;61.460;24.060;2023-01-15T15:33:45;97219.59;;;2.09;100.00
61757;BME280;57225;61.460;24.060;2023-01-15T15:36:32;97215.41;;;2.00;100.00
61757;BME280;57225;61.460;24.060;2023-01-15T15:42:27;97214.06;;;1.85;100.00
61757;BME280;57225;61.460;24.060;2023-01-15T15:45:30;97218.66;;;1.95;100.00
61757;BME280;57225;61.460;24.060;2023-01-15T15:48:34;97226.75;;;2.02;100.00
61757;BME280;57225;61.460;24.060;2023-01-15T15:51:52;97212.91;;;2.10;100.00
61757;BME280;57225;61.460;24.060;2023-01-15T15:54:36;97218.34;;;2.13;100.00
61757;BME280;57225;61.460;24.060;2023-01-15T15:57:21;97219.91;;;2.14;100.00
61757;BME280;57225;61.460;24.060;2023-01-15T16:00:15;97222.34;;;2.09;100.00
61757;BME280;57225;61.460;24.060;2023-01-15T16:03:05;97215.00;;;2.25;100.00
61757;BME280;57225;61.460;24.060;2023-01-15T16:05:55;97210.03;;;2.17;100.00
61757;BME280;57225;61.460;24.060;2023-01-15T16:08:40;97215.59;;;2.13;100.00
61757;BME280;57225;61.460;24.060;2023-01-15T16:11:24;97215.31;;;2.08;100.00
61757;BME280;57225;61.460;24.060;2023-01-15T16:14:10;97215.81;;;2.22;100.00
61757;BME280;57225;61.460;24.060;2023-01-15T16:16:58;97222.75;;;2.30;100.00
61757;BME280;57225;61.460;24.060;2023-01-15T16:19:43;97227.28;;;2.40;100.00
61757;BME280;57225;61.460;24.060;2023-01-15T16:22:28;97234.78;;;2.40;100.00
61757;BME280;57225;61.460;24.060;2023-01-15T16:25:39;97222.94;;;2.20;100.00
61757;BME280;57225;61.460;24.060;2023-01-15T16:28:26;97208.97;;;2.11;100.00
61757;BME280;57225;61.460;24.060;2023-01-15T16:31:13;97206.00;;;2.01;100.00
61757;BME280;57225;61.460;24.060;2023-01-15T16:34:00;97212.78;;;2.17;100.00
61757;BME280;57225;61.460;24.060;2023-01-15T16:36:45;97225.66;;;2.43;100.00
61757;BME280;57225;61.460;24.060;2023-01-15T16:39:39;97224.69;;;2.33;100.00
61757;BME280;57225;61.460;24.060;2023-01-15T16:42:35;97224.78;;;2.26;100.00